sensor_id;sensor_type;location;lat;lon;timestamp;pressure;altitude;pressure_sealevel;temperature
74043;BMP280;62384;53.600;10.040;2022-12-10T00:00:40;-9276.97;;;1.03
74043;BMP280;62384;53.600;10.040;2022-12-10T00:03:05;-9275.28;;;0.96
74043;BMP280;62384;53.600;10.040;2022-12-10T00:05:33;-9275.66;;;0.98
74043;BMP280;62384;53.600;10.040;2022-12-10T00:07:59;-9275.00;;;0.95
74043;BMP280;62384;53.600;10.040;2022-12-10T00:10:24;-9275.00;;;0.95
74043;BMP280;62384;53.600;10.040;2022-12-10T00:12:49;-9276.44;;;1.01
74043;BMP280;62384;53.600;10.040;2022-12-10T00:15:15;-9277.63;;;1.05
74043;BMP280;62384;53.600;10.040;2022-12-10T00:17:41;-9275.00;;;0.95
74043;BMP280;62384;53.600;10.040;2022-12-10T00:20:06;-9276.59;;;1.01
74043;BMP280;62384;53.600;10.040;2022-12-10T00:22:32;-9273.31;;;0.89
74043;BMP280;62384;53.600;10.040;2022-12-10T00:24:57;-9272.91;;;0.87
74043;BMP280;62384;53.600;10.040;2022-12-10T00:27:22;-9272.66;;;0.86
74043;BMP280;62384;53.600;10.040;2022-12-10T00:29:48;-9273.44;;;0.89
74043;BMP280;62384;53.600;10.040;2022-12-10T00:32:13;-9271.47;;;0.82
74043;BMP280;62384;53.600;10.040;2022-12-10T00:34:38;-9271.72;;;0.83
74043;BMP280;62384;53.600;10.040;2022-12-10T00:37:04;-9271.47;;;0.82
74043;BMP280;62384;53.600;10.040;2022-12-10T00:39:29;-9271.72;;;0.83
74043;BMP280;62384;53.600;10.040;2022-12-10T00:41:54;-9270.41;;;0.78
74043;BMP280;62384;53.600;10.040;2022-12-10T00:44:20;-9272.91;;;0.87
74043;BMP280;62384;53.600;10.040;2022-12-10T00:46:45;-9273.31;;;0.89
74043;BMP280;62384;53.600;10.040;2022-12-10T00:49:11;-9273.03;;;0.88
74043;BMP280;62384;53.600;10.040;2022-12-10T00:51:37;-9273.16;;;0.88
74043;BMP280;62384;53.600;10.040;2022-12-10T00:54:02;-9271.47;;;0.82
74043;BMP280;62384;53.600;10.040;2022-12-10T00:56:31;-9275.53;;;0.97
74043;BMP280;62384;53.600;10.040;2022-12-10T00:58:58;-9274.34;;;0.93
74043;BMP280;62384;53.600;10.040;2022-12-10T01:01:27;-9271.59;;;0.82
74043;BMP280;62384;53.600;10.040;2022-12-10T01:03:55;-9272.00;;;0.84
74043;BMP280;62384;53.600;10.040;2022-12-10T01:06:29;-9269.75;;;0.75
74043;BMP280;62384;53.600;10.040;2022-12-10T01:08:57;-9271.84;;;0.83
74043;BMP280;62384;53.600;10.040;2022-12-10T01:11:26;-9267.91;;;0.68
74043;BMP280;62384;53.600;10.040;2022-12-10T01:13:53;-9271.06;;;0.80
74043;BMP280;62384;53.600;10.040;2022-12-10T01:16:20;-9271.34;;;0.81
74043;BMP280;62384;53.600;10.040;2022-12-10T01:18:46;-9268.31;;;0.70
74043;BMP280;62384;53.600;10.040;2022-12-10T01:21:14;-9270.41;;;0.78
74043;BMP280;62384;53.600;10.040;2022-12-10T01:23:41;-9270.81;;;0.79
74043;BMP280;62384;53.600;10.040;2022-12-10T01:26:10;-9270.69;;;0.79
74043;BMP280;62384;53.600;10.040;2022-12-10T01:28:37;-9274.47;;;0.93
74043;BMP280;62384;53.600;10.040;2022-12-10T01:31:07;-9272.25;;;0.85
74043;BMP280;62384;53.600;10.040;2022-12-10T01:33:33;-9271.59;;;0.82
74043;BMP280;62384;53.600;10.040;2022-12-10T01:36:26;-9271.06;;;0.80
74043;BMP280;62384;53.600;10.040;2022-12-10T01:38:52;-9269.88;;;0.76
74043;BMP280;62384;53.600;10.040;2022-12-10T01:41:30;-9271.19;;;0.81
74043;BMP280;62384;53.600;10.040;2022-12-10T01:44:03;-9271.19;;;0.81
74043;BMP280;62384;53.600;10.040;2022-12-10T01:46:31;-9273.31;;;0.89
74043;BMP280;62384;53.600;10.040;2022-12-10T01:48:59;-9271.06;;;0.80
74043;BMP280;62384;53.600;10.040;2022-12-10T01:51:30;-9272.38;;;0.85
74043;BMP280;62384;53.600;10.040;2022-12-10T01:53:56;-9272.50;;;0.86
74043;BMP280;62384;53.600;10.040;2022-12-10T01:56:23;-9274.22;;;0.92
74043;BMP280;62384;53.600;10.040;2022-12-10T01:58:50;-9272.66;;;0.86
74043;BMP280;62384;53.600;10.040;2022-12-10T02:01:36;-9274.63;;;0.94
74043;BMP280;62384;53.600;10.040;2022-12-10T02:04:40;-9277.50;;;1.05
74043;BMP280;62384;53.600;10.040;2022-12-10T02:07:19;-9277.25;;;1.04
74043;BMP280;62384;53.600;10.040;2022-12-10T02:12:52;-9274.75;;;0.94
74043;BMP280;62384;53.600;10.040;2022-12-10T02:15:23;-9273.56;;;0.90
74043;BMP280;62384;53.600;10.040;2022-12-10T02:18:30;-9272.13;;;0.84
74043;BMP280;62384;53.600;10.040;2022-12-10T02:21:02;-9272.13;;;0.84
74043;BMP280;62384;53.600;10.040;2022-12-10T02:23:47;-9269.09;;;0.73
74043;BMP280;62384;53.600;10.040;2022-12-10T02:29:21;-9272.00;;;0.84
74043;BMP280;62384;53.600;10.040;2022-12-10T02:42:02;-9274.34;;;0.93
74043;BMP280;62384;53.600;10.040;2022-12-10T02:44:28;-9274.88;;;0.95
74043;BMP280;62384;53.600;10.040;2022-12-10T02:46:55;-9275.53;;;0.97
74043;BMP280;62384;53.600;10.040;2022-12-10T02:49:21;-9279.22;;;1.12
74043;BMP280;62384;53.600;10.040;2022-12-10T02:51:48;-9274.75;;;0.94
74043;BMP280;62384;53.600;10.040;2022-12-10T02:54:50;-9274.22;;;0.92
74043;BMP280;62384;53.600;10.040;2022-12-10T03:07:22;-9272.13;;;0.84
74043;BMP280;62384;53.600;10.040;2022-12-10T03:09:56;-9272.25;;;0.85
74043;BMP280;62384;53.600;10.040;2022-12-10T03:12:31;-9274.34;;;0.93
74043;BMP280;62384;53.600;10.040;2022-12-10T03:14:59;-9273.44;;;0.89
74043;BMP280;62384;53.600;10.040;2022-12-10T03:17:27;-9270.28;;;0.77
74043;BMP280;62384;53.600;10.040;2022-12-10T03:19:54;-9269.88;;;0.76
74043;BMP280;62384;53.600;10.040;2022-12-10T03:22:20;-9270.28;;;0.77
74043;BMP280;62384;53.600;10.040;2022-12-10T03:24:45;-9272.25;;;0.85
74043;BMP280;62384;53.600;10.040;2022-12-10T03:27:13;-9270.94;;;0.80
74043;BMP280;62384;53.600;10.040;2022-12-10T03:29:46;-9273.81;;;0.91
74043;BMP280;62384;53.600;10.040;2022-12-10T03:32:11;-9273.97;;;0.91
74043;BMP280;62384;53.600;10.040;2022-12-10T03:34:38;-9275.00;;;0.95
74043;BMP280;62384;53.600;10.040;2022-12-10T03:37:04;-9271.59;;;0.82
74043;BMP280;62384;53.600;10.040;2022-12-10T03:39:30;-9272.50;;;0.86
74043;BMP280;62384;53.600;10.040;2022-12-10T03:41:56;-9274.47;;;0.93
74043;BMP280;62384;53.600;10.040;2022-12-10T03:44:33;-9274.34;;;0.93
74043;BMP280;62384;53.600;10.040;2022-12-10T03:46:59;-9272.91;;;0.87
74043;BMP280;62384;53.600;10.040;2022-12-10T03:49:24;-9270.28;;;0.77
74043;BMP280;62384;53.600;10.040;2022-12-10T03:51:50;-9270.94;;;0.80
74043;BMP280;62384;53.600;10.040;2022-12-10T03:54:15;-9271.19;;;0.81
74043;BMP280;62384;53.600;10.040;2022-12-10T03:56:40;-9271.06;;;0.80
74043;BMP280;62384;53.600;10.040;2022-12-10T03:59:06;-9272.91;;;0.87
74043;BMP280;62384;53.600;10.040;2022-12-10T04:01:31;-9275.00;;;0.95
74043;BMP280;62384;53.600;10.040;2022-12-10T04:03:56;-9275.41;;;0.97
74043;BMP280;62384;53.600;10.040;2022-12-10T04:06:22;-9278.28;;;1.08
74043;BMP280;62384;53.600;10.040;2022-12-10T04:08:48;-9275.66;;;0.98
74043;BMP280;62384;53.600;10.040;2022-12-10T04:11:14;-9275.81;;;0.98
74043;BMP280;62384;53.600;10.040;2022-12-10T04:13:40;-9277.63;;;1.05
74043;BMP280;62384;53.600;10.040;2022-12-10T04:16:24;-9281.84;;;1.22
74043;BMP280;62384;53.600;10.040;2022-12-10T04:18:57;-9280.78;;;1.18
74043;BMP280;62384;53.600;10.040;2022-12-10T04:21:23;-9277.50;;;1.05
74043;BMP280;62384;53.600;10.040;2022-12-10T04:24:09;-9279.34;;;1.12
74043;BMP280;62384;53.600;10.040;2022-12-10T04:26:55;-9278.69;;;1.10
74043;BMP280;62384;53.600;10.040;2022-12-10T04:29:23;-9280.66;;;1.17
74043;BMP280;62384;53.600;10.040;2022-12-10T04:31:48;-9273.97;;;0.91
74043;BMP280;62384;53.600;10.040;2022-12-10T04:34:14;-9275.41;;;0.97
74043;BMP280;62384;53.600;10.040;2022-12-10T04:36:39;-9273.56;;;0.90
74043;BMP280;62384;53.600;10.040;2022-12-10T04:39:04;-9275.66;;;0.98
74043;BMP280;62384;53.600;10.040;2022-12-10T04:41:29;-9274.22;;;0.92
74043;BMP280;62384;53.600;10.040;2022-12-10T04:43:58;-9276.06;;;0.99
74043;BMP280;62384;53.600;10.040;2022-12-10T04:46:23;-9276.84;;;1.02
74043;BMP280;62384;53.600;10.040;2022-12-10T04:48:48;-9272.50;;;0.86
74043;BMP280;62384;53.600;10.040;2022-12-10T04:51:13;-9277.09;;;1.03
74043;BMP280;62384;53.600;10.040;2022-12-10T04:53:39;-9279.09;;;1.11
74043;BMP280;62384;53.600;10.040;2022-12-10T04:56:05;-9276.06;;;0.99
74043;BMP280;62384;53.600;10.040;2022-12-10T04:58:31;-9276.84;;;1.02
74043;BMP280;62384;53.600;10.040;2022-12-10T05:01:08;-9275.16;;;0.96
74043;BMP280;62384;53.600;10.040;2022-12-10T05:03:34;-9279.75;;;1.14
74043;BMP280;62384;53.600;10.040;2022-12-10T05:06:05;-9275.28;;;0.96
74043;BMP280;62384;53.600;10.040;2022-12-10T05:08:30;-9277.63;;;1.05
74043;BMP280;62384;53.600;10.040;2022-12-10T05:11:00;-9280.13;;;1.15
74043;BMP280;62384;53.600;10.040;2022-12-10T05:13:26;-9274.88;;;0.95
74043;BMP280;62384;53.600;10.040;2022-12-10T05:15:51;-9275.28;;;0.96
74043;BMP280;62384;53.600;10.040;2022-12-10T05:18:16;-9273.69;;;0.90
74043;BMP280;62384;53.600;10.040;2022-12-10T05:20:41;-9274.88;;;0.95
74043;BMP280;62384;53.600;10.040;2022-12-10T05:23:08;-9273.16;;;0.88
74043;BMP280;62384;53.600;10.040;2022-12-10T05:25:58;-9273.31;;;0.89
74043;BMP280;62384;53.600;10.040;2022-12-10T05:28:23;-9266.22;;;0.62
74043;BMP280;62384;53.600;10.040;2022-12-10T05:30:49;-9275.28;;;0.96
74043;BMP280;62384;53.600;10.040;2022-12-10T05:33:14;-9277.50;;;1.05
74043;BMP280;62384;53.600;10.040;2022-12-10T05:35:39;-9276.06;;;0.99
74043;BMP280;62384;53.600;10.040;2022-12-10T05:38:05;-9274.22;;;0.92
74043;BMP280;62384;53.600;10.040;2022-12-10T05:40:34;-9280.13;;;1.15
74043;BMP280;62384;53.600;10.040;2022-12-10T05:43:00;-9278.56;;;1.09
74043;BMP280;62384;53.600;10.040;2022-12-10T05:45:25;-9275.00;;;0.95
74043;BMP280;62384;53.600;10.040;2022-12-10T05:47:50;-9277.63;;;1.05
74043;BMP280;62384;53.600;10.040;2022-12-10T05:50:15;-9276.84;;;1.02
74043;BMP280;62384;53.600;10.040;2022-12-10T05:52:41;-9278.81;;;1.10
74043;BMP280;62384;53.600;10.040;2022-12-10T05:55:06;-9279.22;;;1.12
74043;BMP280;62384;53.600;10.040;2022-12-10T05:57:31;-9274.63;;;0.94
74043;BMP280;62384;53.600;10.040;2022-12-10T05:59:57;-9272.13;;;0.84
74043;BMP280;62384;53.600;10.040;2022-12-10T06:02:22;-9269.09;;;0.73
74043;BMP280;62384;53.600;10.040;2022-12-10T06:04:47;-9270.94;;;0.80
74043;BMP280;62384;53.600;10.040;2022-12-10T06:07:12;-9270.69;;;0.79
74043;BMP280;62384;53.600;10.040;2022-12-10T06:09:38;-9269.22;;;0.73
74043;BMP280;62384;53.600;10.040;2022-12-10T06:12:03;-9272.13;;;0.84
74043;BMP280;62384;53.600;10.040;2022-12-10T06:14:28;-9272.50;;;0.86
74043;BMP280;62384;53.600;10.040;2022-12-10T06:16:54;-9274.22;;;0.92
74043;BMP280;62384;53.600;10.040;2022-12-10T06:19:19;-9276.31;;;1.00
74043;BMP280;62384;53.600;10.040;2022-12-10T06:21:44;-9273.69;;;0.90
74043;BMP280;62384;53.600;10.040;2022-12-10T06:24:10;-9273.44;;;0.89
74043;BMP280;62384;53.600;10.040;2022-12-10T06:26:35;-9272.91;;;0.87
74043;BMP280;62384;53.600;10.040;2022-12-10T06:29:01;-9273.31;;;0.89
74043;BMP280;62384;53.600;10.040;2022-12-10T06:31:26;-9270.81;;;0.79
74043;BMP280;62384;53.600;10.040;2022-12-10T06:33:51;-9273.81;;;0.91
74043;BMP280;62384;53.600;10.040;2022-12-10T06:36:18;-9271.84;;;0.83
74043;BMP280;62384;53.600;10.040;2022-12-10T06:38:43;-9269.75;;;0.75
74043;BMP280;62384;53.600;10.040;2022-12-10T06:41:12;-9270.94;;;0.80
74043;BMP280;62384;53.600;10.040;2022-12-10T06:43:37;-9270.53;;;0.78
74043;BMP280;62384;53.600;10.040;2022-12-10T06:46:07;-9271.19;;;0.81
74043;BMP280;62384;53.600;10.040;2022-12-10T06:48:32;-9267.53;;;0.67
74043;BMP280;62384;53.600;10.040;2022-12-10T06:50:58;-9268.44;;;0.70
74043;BMP280;62384;53.600;10.040;2022-12-10T06:53:23;-9267.41;;;0.66
74043;BMP280;62384;53.600;10.040;2022-12-10T06:55:48;-9268.19;;;0.69
74043;BMP280;62384;53.600;10.040;2022-12-10T06:58:14;-9266.88;;;0.64
74043;BMP280;62384;53.600;10.040;2022-12-10T07:00:39;-9267.13;;;0.65
74043;BMP280;62384;53.600;10.040;2022-12-10T07:03:05;-9270.28;;;0.77
74043;BMP280;62384;53.600;10.040;2022-12-10T07:05:30;-9266.88;;;0.64
74043;BMP280;62384;53.600;10.040;2022-12-10T07:07:55;-9267.41;;;0.66
74043;BMP280;62384;53.600;10.040;2022-12-10T07:10:20;-9268.19;;;0.69
74043;BMP280;62384;53.600;10.040;2022-12-10T07:12:46;-9265.81;;;0.60
74043;BMP280;62384;53.600;10.040;2022-12-10T07:15:11;-9265.16;;;0.58
74043;BMP280;62384;53.600;10.040;2022-12-10T07:17:37;-9264.09;;;0.53
74043;BMP280;62384;53.600;10.040;2022-12-10T07:20:02;-9266.59;;;0.63
74043;BMP280;62384;53.600;10.040;2022-12-10T07:22:28;-9259.78;;;0.37
74043;BMP280;62384;53.600;10.040;2022-12-10T07:24:53;-9263.06;;;0.49
74043;BMP280;62384;53.600;10.040;2022-12-10T07:27:18;-9265.56;;;0.59
74043;BMP280;62384;53.600;10.040;2022-12-10T07:29:43;-9267.25;;;0.66
74043;BMP280;62384;53.600;10.040;2022-12-10T07:32:11;-9268.31;;;0.70
74043;BMP280;62384;53.600;10.040;2022-12-10T07:34:37;-9268.31;;;0.70
74043;BMP280;62384;53.600;10.040;2022-12-10T07:37:02;-9266.06;;;0.61
74043;BMP280;62384;53.600;10.040;2022-12-10T07:39:27;-9268.72;;;0.71
74043;BMP280;62384;53.600;10.040;2022-12-10T07:41:53;-9269.75;;;0.75
74043;BMP280;62384;53.600;10.040;2022-12-10T07:44:20;-9267.53;;;0.67
74043;BMP280;62384;53.600;10.040;2022-12-10T07:46:46;-9264.09;;;0.53
74043;BMP280;62384;53.600;10.040;2022-12-10T07:49:11;-9262.13;;;0.46
74043;BMP280;62384;53.600;10.040;2022-12-10T07:51:37;-9263.06;;;0.49
74043;BMP280;62384;53.600;10.040;2022-12-10T07:54:03;-9254.13;;;0.15
74043;BMP280;62384;53.600;10.040;2022-12-10T07:56:28;-9260.97;;;0.41
74043;BMP280;62384;53.600;10.040;2022-12-10T07:58:54;-9262.41;;;0.47
74043;BMP280;62384;53.600;10.040;2022-12-10T08:01:23;-9259.25;;;0.35
74043;BMP280;62384;53.600;10.040;2022-12-10T08:03:51;-9260.56;;;0.40
74043;BMP280;62384;53.600;10.040;2022-12-10T08:06:18;-9263.97;;;0.53
74043;BMP280;62384;53.600;10.040;2022-12-10T08:08:44;-9261.34;;;0.43
74043;BMP280;62384;53.600;10.040;2022-12-10T08:11:10;-9260.97;;;0.41
74043;BMP280;62384;53.600;10.040;2022-12-10T08:13:36;-9259.66;;;0.36
74043;BMP280;62384;53.600;10.040;2022-12-10T08:16:03;-9259.50;;;0.36
74043;BMP280;62384;53.600;10.040;2022-12-10T08:18:30;-9262.53;;;0.47
74043;BMP280;62384;53.600;10.040;2022-12-10T08:20:55;-9259.00;;;0.34
74043;BMP280;62384;53.600;10.040;2022-12-10T08:23:20;-9260.03;;;0.38
74043;BMP280;62384;53.600;10.040;2022-12-10T08:25:46;-9258.72;;;0.33
74043;BMP280;62384;53.600;10.040;2022-12-10T08:28:11;-9257.56;;;0.28
74043;BMP280;62384;53.600;10.040;2022-12-10T08:30:36;-9255.19;;;0.19
74043;BMP280;62384;53.600;10.040;2022-12-10T08:33:01;-9260.56;;;0.40
74043;BMP280;62384;53.600;10.040;2022-12-10T08:35:27;-9260.31;;;0.39
74043;BMP280;62384;53.600;10.040;2022-12-10T08:37:53;-9261.47;;;0.43
74043;BMP280;62384;53.600;10.040;2022-12-10T08:40:18;-9262.13;;;0.46
74043;BMP280;62384;53.600;10.040;2022-12-10T08:42:43;-9264.78;;;0.56
74043;BMP280;62384;53.600;10.040;2022-12-10T08:45:08;-9263.31;;;0.50
74043;BMP280;62384;53.600;10.040;2022-12-10T08:47:34;-9261.47;;;0.43
74043;BMP280;62384;53.600;10.040;2022-12-10T08:49:59;-9257.94;;;0.30
74043;BMP280;62384;53.600;10.040;2022-12-10T08:52:24;-9261.63;;;0.44
74043;BMP280;62384;53.600;10.040;2022-12-10T08:54:50;-9258.84;;;0.33
74043;BMP280;62384;53.600;10.040;2022-12-10T08:57:15;-9259.78;;;0.37
74043;BMP280;62384;53.600;10.040;2022-12-10T08:59:40;-9260.31;;;0.39
74043;BMP280;62384;53.600;10.040;2022-12-10T09:02:09;-9264.09;;;0.53
74043;BMP280;62384;53.600;10.040;2022-12-10T09:04:35;-9262.53;;;0.47
74043;BMP280;62384;53.600;10.040;2022-12-10T09:07:00;-9261.34;;;0.43
74043;BMP280;62384;53.600;10.040;2022-12-10T09:09:26;-9260.56;;;0.40
74043;BMP280;62384;53.600;10.040;2022-12-10T09:11:52;-9260.44;;;0.39
74043;BMP280;62384;53.600;10.040;2022-12-10T09:14:17;-9259.50;;;0.36
74043;BMP280;62384;53.600;10.040;2022-12-10T09:16:42;-9257.28;;;0.27
74043;BMP280;62384;53.600;10.040;2022-12-10T09:19:08;-9261.75;;;0.44
74043;BMP280;62384;53.600;10.040;2022-12-10T09:21:34;-9258.84;;;0.33
74043;BMP280;62384;53.600;10.040;2022-12-10T09:24:00;-9258.47;;;0.32
74043;BMP280;62384;53.600;10.040;2022-12-10T09:26:26;-9259.66;;;0.36
74043;BMP280;62384;53.600;10.040;2022-12-10T09:28:51;-9260.81;;;0.41
74043;BMP280;62384;53.600;10.040;2022-12-10T09:31:18;-9261.09;;;0.42
74043;BMP280;62384;53.600;10.040;2022-12-10T09:33:44;-9257.69;;;0.29
74043;BMP280;62384;53.600;10.040;2022-12-10T09:36:11;-9259.25;;;0.35
74043;BMP280;62384;53.600;10.040;2022-12-10T09:38:38;-9261.09;;;0.42
74043;BMP280;62384;53.600;10.040;2022-12-10T09:46:07;-9261.22;;;0.42
74043;BMP280;62384;53.600;10.040;2022-12-10T09:48:59;-9264.50;;;0.55
74043;BMP280;62384;53.600;10.040;2022-12-10T09:51:29;-9265.03;;;0.57
74043;BMP280;62384;53.600;10.040;2022-12-10T09:53:57;-9264.09;;;0.53
74043;BMP280;62384;53.600;10.040;2022-12-10T09:56:30;-9255.97;;;0.22
74043;BMP280;62384;53.600;10.040;2022-12-10T09:58:57;-9259.38;;;0.35
74043;BMP280;62384;53.600;10.040;2022-12-10T10:01:27;-9258.47;;;0.32
74043;BMP280;62384;53.600;10.040;2022-12-10T10:03:54;-9256.38;;;0.24
74043;BMP280;62384;53.600;10.040;2022-12-10T10:06:21;-9255.56;;;0.21
74043;BMP280;62384;53.600;10.040;2022-12-10T10:08:49;-9255.31;;;0.20
74043;BMP280;62384;53.600;10.040;2022-12-10T10:11:20;-9257.16;;;0.27
74043;BMP280;62384;53.600;10.040;2022-12-10T10:13:51;-9257.81;;;0.29
74043;BMP280;62384;53.600;10.040;2022-12-10T10:16:25;-9258.34;;;0.31
74043;BMP280;62384;53.600;10.040;2022-12-10T10:18:55;-9257.56;;;0.28
74043;BMP280;62384;53.600;10.040;2022-12-10T10:21:24;-9263.19;;;0.50
74043;BMP280;62384;53.600;10.040;2022-12-10T10:23:50;-9263.44;;;0.51
74043;BMP280;62384;53.600;10.040;2022-12-10T10:26:16;-9263.44;;;0.51
74043;BMP280;62384;53.600;10.040;2022-12-10T10:28:41;-9261.09;;;0.42
74043;BMP280;62384;53.600;10.040;2022-12-10T10:31:17;-9262.94;;;0.49
74043;BMP280;62384;53.600;10.040;2022-12-10T10:33:52;-9262.94;;;0.49
74043;BMP280;62384;53.600;10.040;2022-12-10T10:36:36;-9265.94;;;0.61
74043;BMP280;62384;53.600;10.040;2022-12-10T10:41:43;-9263.59;;;0.51
74043;BMP280;62384;53.600;10.040;2022-12-10T10:44:16;-9266.59;;;0.63
74043;BMP280;62384;53.600;10.040;2022-12-10T10:46:45;-9263.97;;;0.53
74043;BMP280;62384;53.600;10.040;2022-12-10T10:49:32;-9265.03;;;0.57
74043;BMP280;62384;53.600;10.040;2022-12-10T10:52:05;-9265.16;;;0.58
74043;BMP280;62384;53.600;10.040;2022-12-10T10:54:49;-9263.84;;;0.52
74043;BMP280;62384;53.600;10.040;2022-12-10T10:57:35;-9261.22;;;0.42
74043;BMP280;62384;53.600;10.040;2022-12-10T11:00:19;-9263.19;;;0.50
74043;BMP280;62384;53.600;10.040;2022-12-10T11:02:45;-9262.78;;;0.48
74043;BMP280;62384;53.600;10.040;2022-12-10T11:05:25;-9261.34;;;0.43
74043;BMP280;62384;53.600;10.040;2022-12-10T11:07:59;-9267.53;;;0.67
74043;BMP280;62384;53.600;10.040;2022-12-10T11:10:25;-9269.63;;;0.75
74043;BMP280;62384;53.600;10.040;2022-12-10T11:15:44;-9267.25;;;0.66
74043;BMP280;62384;53.600;10.040;2022-12-10T11:18:40;-9262.94;;;0.49
74043;BMP280;62384;53.600;10.040;2022-12-10T11:23:48;-9259.66;;;0.36
74043;BMP280;62384;53.600;10.040;2022-12-10T11:31:37;-9264.09;;;0.53
74043;BMP280;62384;53.600;10.040;2022-12-10T11:34:17;-9263.44;;;0.51
74043;BMP280;62384;53.600;10.040;2022-12-10T11:37:01;-9263.97;;;0.53
74043;BMP280;62384;53.600;10.040;2022-12-10T11:42:31;-9268.97;;;0.72
74043;BMP280;62384;53.600;10.040;2022-12-10T11:50:17;-9264.25;;;0.54
74043;BMP280;62384;53.600;10.040;2022-12-10T11:56:05;-9268.56;;;0.71
74043;BMP280;62384;53.600;10.040;2022-12-10T12:09:32;-9265.03;;;0.57
74043;BMP280;62384;53.600;10.040;2022-12-10T12:12:20;-9266.59;;;0.63
74043;BMP280;62384;53.600;10.040;2022-12-10T12:15:03;-9267.00;;;0.65
74043;BMP280;62384;53.600;10.040;2022-12-10T12:17:38;-9268.19;;;0.69
74043;BMP280;62384;53.600;10.040;2022-12-10T12:20:24;-9266.59;;;0.63
74043;BMP280;62384;53.600;10.040;2022-12-10T12:23:00;-9266.47;;;0.63
74043;BMP280;62384;53.600;10.040;2022-12-10T12:25:35;-9265.94;;;0.61
74043;BMP280;62384;53.600;10.040;2022-12-10T12:28:10;-9265.28;;;0.58
74043;BMP280;62384;53.600;10.040;2022-12-10T12:30:37;-9266.06;;;0.61
74043;BMP280;62384;53.600;10.040;2022-12-10T12:33:28;-9268.19;;;0.69
74043;BMP280;62384;53.600;10.040;2022-12-10T12:36:06;-9266.88;;;0.64
74043;BMP280;62384;53.600;10.040;2022-12-10T12:38:51;-9264.91;;;0.57
74043;BMP280;62384;53.600;10.040;2022-12-10T12:41:31;-9265.16;;;0.58
74043;BMP280;62384;53.600;10.040;2022-12-10T12:46:45;-9266.06;;;0.61
74043;BMP280;62384;53.600;10.040;2022-12-10T12:51:49;-9264.78;;;0.56
74043;BMP280;62384;53.600;10.040;2022-12-10T12:54:16;-9266.06;;;0.61
74043;BMP280;62384;53.600;10.040;2022-12-10T12:59:20;-9266.88;;;0.64
74043;BMP280;62384;53.600;10.040;2022-12-10T13:01:53;-9265.56;;;0.59
74043;BMP280;62384;53.600;10.040;2022-12-10T13:04:19;-9261.63;;;0.44
74043;BMP280;62384;53.600;10.040;2022-12-10T13:10:24;-9260.97;;;0.41
74043;BMP280;62384;53.600;10.040;2022-12-10T13:13:06;-9260.56;;;0.40
74043;BMP280;62384;53.600;10.040;2022-12-10T13:15:33;-9256.09;;;0.23
74043;BMP280;62384;53.600;10.040;2022-12-10T13:23:51;-9262.41;;;0.47
74043;BMP280;62384;53.600;10.040;2022-12-10T13:26:25;-9265.03;;;0.57
74043;BMP280;62384;53.600;10.040;2022-12-10T13:28:53;-9263.84;;;0.52
74043;BMP280;62384;53.600;10.040;2022-12-10T13:31:34;-9266.72;;;0.64
74043;BMP280;62384;53.600;10.040;2022-12-10T13:39:19;-9264.09;;;0.53
74043;BMP280;62384;53.600;10.040;2022-12-10T13:45:00;-9260.81;;;0.41
74043;BMP280;62384;53.600;10.040;2022-12-10T13:50:30;-9264.09;;;0.53
74043;BMP280;62384;53.600;10.040;2022-12-10T13:55:39;-9264.38;;;0.54
74043;BMP280;62384;53.600;10.040;2022-12-10T14:01:20;-9265.94;;;0.61
74043;BMP280;62384;53.600;10.040;2022-12-10T14:04:18;-9263.44;;;0.51
74043;BMP280;62384;53.600;10.040;2022-12-10T14:06:48;-9261.88;;;0.45
74043;BMP280;62384;53.600;10.040;2022-12-10T14:09:22;-9262.53;;;0.47
74043;BMP280;62384;53.600;10.040;2022-12-10T14:11:56;-9263.44;;;0.51
74043;BMP280;62384;53.600;10.040;2022-12-10T14:14:28;-9263.97;;;0.53
74043;BMP280;62384;53.600;10.040;2022-12-10T14:16:55;-9262.28;;;0.46
74043;BMP280;62384;53.600;10.040;2022-12-10T14:19:23;-9263.72;;;0.52
74043;BMP280;62384;53.600;10.040;2022-12-10T14:21:51;-9263.06;;;0.49
74043;BMP280;62384;53.600;10.040;2022-12-10T14:24:29;-9263.44;;;0.51
74043;BMP280;62384;53.600;10.040;2022-12-10T14:27:03;-9262.66;;;0.48
74043;BMP280;62384;53.600;10.040;2022-12-10T14:29:30;-9261.75;;;0.44
74043;BMP280;62384;53.600;10.040;2022-12-10T14:31:56;-9264.50;;;0.55
74043;BMP280;62384;53.600;10.040;2022-12-10T14:34:25;-9258.59;;;0.32
74043;BMP280;62384;53.600;10.040;2022-12-10T14:36:54;-9264.63;;;0.56
74043;BMP280;62384;53.600;10.040;2022-12-10T14:39:29;-9264.50;;;0.55
74043;BMP280;62384;53.600;10.040;2022-12-10T14:42:00;-9265.94;;;0.61
74043;BMP280;62384;53.600;10.040;2022-12-10T14:44:27;-9263.31;;;0.50
74043;BMP280;62384;53.600;10.040;2022-12-10T14:47:02;-9265.94;;;0.61
74043;BMP280;62384;53.600;10.040;2022-12-10T14:49:28;-9264.50;;;0.55
74043;BMP280;62384;53.600;10.040;2022-12-10T14:51:55;-9266.88;;;0.64
74043;BMP280;62384;53.600;10.040;2022-12-10T14:54:34;-9264.09;;;0.53
74043;BMP280;62384;53.600;10.040;2022-12-10T14:57:05;-9264.25;;;0.54
74043;BMP280;62384;53.600;10.040;2022-12-10T15:02:26;-9258.06;;;0.30
74043;BMP280;62384;53.600;10.040;2022-12-10T15:04:53;-9255.44;;;0.20
74043;BMP280;62384;53.600;10.040;2022-12-10T15:07:25;-9258.84;;;0.33
74043;BMP280;62384;53.600;10.040;2022-12-10T15:09:52;-9262.00;;;0.45
74043;BMP280;62384;53.600;10.040;2022-12-10T15:12:28;-9263.19;;;0.50
74043;BMP280;62384;53.600;10.040;2022-12-10T15:14:55;-9263.72;;;0.52
74043;BMP280;62384;53.600;10.040;2022-12-10T15:17:59;-9264.38;;;0.54
74043;BMP280;62384;53.600;10.040;2022-12-10T15:20:30;-9263.72;;;0.52
74043;BMP280;62384;53.600;10.040;2022-12-10T15:23:05;-9264.25;;;0.54
74043;BMP280;62384;53.600;10.040;2022-12-10T15:25:42;-9260.31;;;0.39
74043;BMP280;62384;53.600;10.040;2022-12-10T15:28:26;-9261.88;;;0.45
74043;BMP280;62384;53.600;10.040;2022-12-10T15:30:56;-9263.44;;;0.51
74043;BMP280;62384;53.600;10.040;2022-12-10T15:34:07;-9263.44;;;0.51
74043;BMP280;62384;53.600;10.040;2022-12-10T15:36:34;-9264.91;;;0.57
74043;BMP280;62384;53.600;10.040;2022-12-10T15:41:58;-9263.19;;;0.50
74043;BMP280;62384;53.600;10.040;2022-12-10T15:49:46;-9257.03;;;0.26
74043;BMP280;62384;53.600;10.040;2022-12-10T15:52:12;-9260.03;;;0.38
74043;BMP280;62384;53.600;10.040;2022-12-10T15:54:41;-9261.88;;;0.45
74043;BMP280;62384;53.600;10.040;2022-12-10T15:57:12;-9262.41;;;0.47
74043;BMP280;62384;53.600;10.040;2022-12-10T15:59:39;-9261.34;;;0.43
74043;BMP280;62384;53.600;10.040;2022-12-10T16:07:38;-9259.38;;;0.35
74043;BMP280;62384;53.600;10.040;2022-12-10T16:10:04;-9262.00;;;0.45
74043;BMP280;62384;53.600;10.040;2022-12-10T16:12:29;-9259.78;;;0.37
74043;BMP280;62384;53.600;10.040;2022-12-10T16:14:56;-9260.16;;;0.38
74043;BMP280;62384;53.600;10.040;2022-12-10T16:17:25;-9260.16;;;0.38
74043;BMP280;62384;53.600;10.040;2022-12-10T16:19:51;-9258.72;;;0.33